sensor_id;sensor_type;location;lat;lon;timestamp;pressure;altitude;pressure_sealevel;temperature;humidity
18858;BME280;9558;50.178;8.370;2023-03-08T00:01:51;96692.25;;;1.98;100.00
18858;BME280;9558;50.178;8.370;2023-03-08T00:04:17;96689.03;;;1.96;100.00
18858;BME280;9558;50.178;8.370;2023-03-08T00:06:44;96686.66;;;1.94;100.00
18858;BME280;9558;50.178;8.370;2023-03-08T00:09:10;96678.38;;;1.92;100.00
18858;BME280;9558;50.178;8.370;2023-03-08T00:11:38;96674.38;;;1.89;100.00
18858;BME280;9558;50.178;8.370;2023-03-08T00:14:04;96680.75;;;1.85;100.00
18858;BME280;9558;50.178;8.370;2023-03-08T00:16:31;96691.25;;;1.82;100.00
18858;BME280;9558;50.178;8.370;2023-03-08T00:18:57;96682.81;;;1.82;100.00
18858;BME280;9558;50.178;8.370;2023-03-08T00:21:24;96679.31;;;1.83;100.00
18858;BME280;9558;50.178;8.370;2023-03-08T00:23:51;96685.84;;;1.85;100.00
18858;BME280;9558;50.178;8.370;2023-03-08T00:26:19;96684.91;;;1.86;100.00
18858;BME280;9558;50.178;8.370;2023-03-08T00:28:46;96689.69;;;1.89;100.00
18858;BME280;9558;50.178;8.370;2023-03-08T00:31:13;96690.19;;;1.93;100.00
18858;BME280;9558;50.178;8.370;2023-03-08T00:33:40;96686.66;;;1.94;100.00
18858;BME280;9558;50.178;8.370;2023-03-08T00:36:09;96683.94;;;1.96;100.00
18858;BME280;9558;50.178;8.370;2023-03-08T00:38:38;96694.16;;;1.96;100.00
18858;BME280;9558;50.178;8.370;2023-03-08T00:41:04;96694.16;;;2.04;100.00
18858;BME280;9558;50.178;8.370;2023-03-08T00:43:31;96696.09;;;2.02;100.00
18858;BME280;9558;50.178;8.370;2023-03-08T00:45:59;96695.13;;;2.03;100.00
18858;BME280;9558;50.178;8.370;2023-03-08T00:48:26;96686.50;;;2.04;100.00
18858;BME280;9558;50.178;8.370;2023-03-08T00:50:53;96691.63;;;2.04;100.00
18858;BME280;9558;50.178;8.370;2023-03-08T00:53:19;96696.41;;;2.07;100.00
18858;BME280;9558;50.178;8.370;2023-03-08T00:55:48;96698.31;;;2.05;100.00
18858;BME280;9558;50.178;8.370;2023-03-08T00:58:14;96681.41;;;2.04;100.00
18858;BME280;9558;50.178;8.370;2023-03-08T01:00:41;96686.03;;;2.08;100.00
18858;BME280;9558;50.178;8.370;2023-03-08T01:03:09;96680.16;;;2.08;100.00
18858;BME280;9558;50.178;8.370;2023-03-08T01:05:37;96683.00;;;2.05;100.00
18858;BME280;9558;50.178;8.370;2023-03-08T01:08:04;96676.97;;;2.06;100.00
18858;BME280;9558;50.178;8.370;2023-03-08T01:10:30;96676.47;;;2.02;100.00
18858;BME280;9558;50.178;8.370;2023-03-08T01:12:57;96669.59;;;2.03;100.00
18858;BME280;9558;50.178;8.370;2023-03-08T01:15:23;96675.03;;;2.00;100.00
18858;BME280;9558;50.178;8.370;2023-03-08T01:17:50;96674.06;;;2.01;100.00
18858;BME280;9558;50.178;8.370;2023-03-08T01:20:18;96666.09;;;1.96;100.00
18858;BME280;9558;50.178;8.370;2023-03-08T01:22:45;96650.16;;;1.94;100.00
18858;BME280;9558;50.178;8.370;2023-03-08T01:25:11;96656.22;;;1.84;100.00
18858;BME280;9558;50.178;8.370;2023-03-08T01:27:37;96655.72;;;1.81;100.00
18858;BME280;9558;50.178;8.370;2023-03-08T01:30:05;96647.56;;;1.77;100.00
18858;BME280;9558;50.178;8.370;2023-03-08T01:32:31;96651.41;;;1.81;100.00
18858;BME280;9558;50.178;8.370;2023-03-08T01:34:58;96641.22;;;1.81;100.00
18858;BME280;9558;50.178;8.370;2023-03-08T01:37:30;96640.41;;;1.81;100.00
18858;BME280;9558;50.178;8.370;2023-03-08T01:39:56;96639.31;;;1.83;100.00
18858;BME280;9558;50.178;8.370;2023-03-08T01:42:23;96639.00;;;1.86;100.00
18858;BME280;9558;50.178;8.370;2023-03-08T01:44:53;96631.97;;;1.88;100.00
18858;BME280;9558;50.178;8.370;2023-03-08T01:47:21;96637.72;;;1.90;100.00
18858;BME280;9558;50.178;8.370;2023-03-08T01:49:48;96628.97;;;1.93;100.00
18858;BME280;9558;50.178;8.370;2023-03-08T01:52:18;96634.84;;;1.94;100.00
18858;BME280;9558;50.178;8.370;2023-03-08T01:54:49;96636.47;;;1.95;100.00
18858;BME280;9558;50.178;8.370;2023-03-08T01:57:21;96627.81;;;1.96;100.00
18858;BME280;9558;50.178;8.370;2023-03-08T01:59:50;96620.16;;;1.96;100.00
18858;BME280;9558;50.178;8.370;2023-03-08T02:02:21;96618.28;;;1.98;100.00
18858;BME280;9558;50.178;8.370;2023-03-08T02:04:50;96611.41;;;1.98;100.00
18858;BME280;9558;50.178;8.370;2023-03-08T02:07:17;96605.53;;;1.98;100.00
18858;BME280;9558;50.178;8.370;2023-03-08T02:09:43;96612.22;;;1.99;100.00
18858;BME280;9558;50.178;8.370;2023-03-08T02:12:12;96606.31;;;1.98;100.00
18858;BME280;9558;50.178;8.370;2023-03-08T02:14:40;96599.63;;;1.97;100.00
18858;BME280;9558;50.178;8.370;2023-03-08T02:17:07;96603.75;;;1.98;100.00
18858;BME280;9558;50.178;8.370;2023-03-08T02:19:40;96597.69;;;1.99;100.00
18858;BME280;9558;50.178;8.370;2023-03-08T02:22:10;96597.88;;;1.98;100.00
18858;BME280;9558;50.178;8.370;2023-03-08T02:24:39;96586.72;;;1.99;100.00
18858;BME280;9558;50.178;8.370;2023-03-08T02:27:08;96591.16;;;1.97;100.00
18858;BME280;9558;50.178;8.370;2023-03-08T02:29:37;96580.16;;;1.96;100.00
18858;BME280;9558;50.178;8.370;2023-03-08T02:32:04;96583.50;;;1.97;100.00
18858;BME280;9558;50.178;8.370;2023-03-08T02:34:31;96569.16;;;1.96;100.00
18858;BME280;9558;50.178;8.370;2023-03-08T02:36:57;96574.91;;;1.98;100.00
18858;BME280;9558;50.178;8.370;2023-03-08T02:39:24;96568.84;;;1.99;100.00
18858;BME280;9558;50.178;8.370;2023-03-08T02:41:51;96566.31;;;1.99;100.00
18858;BME280;9558;50.178;8.370;2023-03-08T02:44:18;96568.22;;;1.97;100.00
18858;BME280;9558;50.178;8.370;2023-03-08T02:46:44;96567.59;;;1.95;100.00
18858;BME280;9558;50.178;8.370;2023-03-08T02:49:11;96560.25;;;1.92;100.00
18858;BME280;9558;50.178;8.370;2023-03-08T02:51:37;96556.88;;;1.91;100.00
18858;BME280;9558;50.178;8.370;2023-03-08T02:54:04;96555.28;;;1.90;100.00
18858;BME280;9558;50.178;8.370;2023-03-08T02:56:30;96552.91;;;1.88;100.00
18858;BME280;9558;50.178;8.370;2023-03-08T02:58:58;96550.34;;;1.88;100.00
18858;BME280;9558;50.178;8.370;2023-03-08T03:01:25;96548.78;;;1.87;100.00
18858;BME280;9558;50.178;8.370;2023-03-08T03:03:53;96545.25;;;1.88;100.00
18858;BME280;9558;50.178;8.370;2023-03-08T03:06:20;96551.16;;;1.89;100.00
18858;BME280;9558;50.178;8.370;2023-03-08T03:08:47;96550.34;;;1.88;100.00
18858;BME280;9558;50.178;8.370;2023-03-08T03:11:16;96548.78;;;1.87;100.00
18858;BME280;9558;50.178;8.370;2023-03-08T03:13:43;96544.63;;;1.86;100.00
18858;BME280;9558;50.178;8.370;2023-03-08T03:16:13;96546.84;;;1.89;100.00
18858;BME280;9558;50.178;8.370;2023-03-08T03:18:40;96544.28;;;1.89;100.00
18858;BME280;9558;50.178;8.370;2023-03-08T03:21:09;96543.34;;;1.90;100.00
18858;BME280;9558;50.178;8.370;2023-03-08T03:23:36;96547.63;;;1.90;100.00
18858;BME280;9558;50.178;8.370;2023-03-08T03:26:04;96534.75;;;1.92;100.00
18858;BME280;9558;50.178;8.370;2023-03-08T03:28:31;96526.13;;;1.93;100.00
18858;BME280;9558;50.178;8.370;2023-03-08T03:30:57;96537.28;;;1.92;100.00
18858;BME280;9558;50.178;8.370;2023-03-08T03:33:25;96533.16;;;1.90;100.00
18858;BME280;9558;50.178;8.370;2023-03-08T03:35:52;96532.31;;;1.90;100.00
18858;BME280;9558;50.178;8.370;2023-03-08T03:38:18;96524.84;;;1.88;100.00
18858;BME280;9558;50.178;8.370;2023-03-08T03:40:45;96533.63;;;1.86;100.00
18858;BME280;9558;50.178;8.370;2023-03-08T03:43:11;96532.50;;;1.88;100.00
18858;BME280;9558;50.178;8.370;2023-03-08T03:45:38;96530.25;;;1.85;100.00
18858;BME280;9558;50.178;8.370;2023-03-08T03:48:05;96527.88;;;1.84;100.00
18858;BME280;9558;50.178;8.370;2023-03-08T03:50:33;96521.34;;;1.81;100.00
18858;BME280;9558;50.178;8.370;2023-03-08T03:52:59;96523.88;;;1.81;100.00
18858;BME280;9558;50.178;8.370;2023-03-08T03:55:25;96525.31;;;1.84;100.00
18858;BME280;9558;50.178;8.370;2023-03-08T03:57:52;96520.72;;;1.79;100.00
18858;BME280;9558;50.178;8.370;2023-03-08T04:00:18;96527.72;;;1.77;100.00
18858;BME280;9558;50.178;8.370;2023-03-08T04:02:46;96515.94;;;1.76;100.00
18858;BME280;9558;50.178;8.370;2023-03-08T04:05:12;96507.81;;;1.81;100.00
18858;BME280;9558;50.178;8.370;2023-03-08T04:07:40;96514.34;;;1.75;100.00
18858;BME280;9558;50.178;8.370;2023-03-08T04:10:07;96511.78;;;1.75;100.00
18858;BME280;9558;50.178;8.370;2023-03-08T04:12:34;96513.06;;;1.71;100.00
18858;BME280;9558;50.178;8.370;2023-03-08T04:15:00;96511.47;;;1.70;100.00
18858;BME280;9558;50.178;8.370;2023-03-08T04:17:27;96507.97;;;1.71;100.00
18858;BME280;9558;50.178;8.370;2023-03-08T04:19:53;96504.47;;;1.72;100.00
18858;BME280;9558;50.178;8.370;2023-03-08T04:22:20;96494.88;;;1.74;100.00
18858;BME280;9558;50.178;8.370;2023-03-08T04:24:48;96493.00;;;1.76;100.00
18858;BME280;9558;50.178;8.370;2023-03-08T04:27:14;96500.97;;;1.73;100.00
18858;BME280;9558;50.178;8.370;2023-03-08T04:29:40;96499.38;;;1.72;100.00
18858;BME280;9558;50.178;8.370;2023-03-08T04:32:07;96494.25;;;1.72;100.00
18858;BME280;9558;50.178;8.370;2023-03-08T04:34:33;96496.81;;;1.72;100.00
18858;BME280;9558;50.178;8.370;2023-03-08T04:37:00;96501.09;;;1.71;100.00
18858;BME280;9558;50.178;8.370;2023-03-08T04:39:26;96496.97;;;1.70;100.00
18858;BME280;9558;50.178;8.370;2023-03-08T04:41:54;96491.72;;;1.72;100.00
18858;BME280;9558;50.178;8.370;2023-03-08T04:44:21;96485.19;;;1.69;100.00
18858;BME280;9558;50.178;8.370;2023-03-08T04:46:47;96478.16;;;1.71;100.00
18858;BME280;9558;50.178;8.370;2023-03-08T04:49:14;96480.25;;;1.68;100.00
18858;BME280;9558;50.178;8.370;2023-03-08T04:51:40;96482.47;;;1.71;100.00
18858;BME280;9558;50.178;8.370;2023-03-08T04:54:07;96481.03;;;1.68;100.00
18858;BME280;9558;50.178;8.370;2023-03-08T04:56:33;96475.75;;;1.70;100.00
18858;BME280;9558;50.178;8.370;2023-03-08T04:59:01;96478.81;;;1.73;100.00
18858;BME280;9558;50.178;8.370;2023-03-08T05:01:27;96475.47;;;1.73;100.00
18858;BME280;9558;50.178;8.370;2023-03-08T05:03:54;96469.38;;;1.74;100.00
18858;BME280;9558;50.178;8.370;2023-03-08T05:06:22;96470.03;;;1.76;100.00
18858;BME280;9558;50.178;8.370;2023-03-08T05:08:49;96464.44;;;1.72;100.00
18858;BME280;9558;50.178;8.370;2023-03-08T05:11:18;96460.63;;;1.77;100.00
18858;BME280;9558;50.178;8.370;2023-03-08T05:13:45;96453.13;;;1.75;100.00
18858;BME280;9558;50.178;8.370;2023-03-08T05:16:13;96451.22;;;1.77;100.00
18858;BME280;9558;50.178;8.370;2023-03-08T05:18:39;96444.53;;;1.76;100.00
18858;BME280;9558;50.178;8.370;2023-03-08T05:21:08;96436.22;;;1.74;100.00
18858;BME280;9558;50.178;8.370;2023-03-08T05:23:35;96439.44;;;1.76;100.00
18858;BME280;9558;50.178;8.370;2023-03-08T05:26:03;96437.22;;;1.73;100.00
18858;BME280;9558;50.178;8.370;2023-03-08T05:28:34;96439.59;;;1.75;100.00
18858;BME280;9558;50.178;8.370;2023-03-08T05:31:01;96435.91;;;1.77;100.00
18858;BME280;9558;50.178;8.370;2023-03-08T05:33:30;96429.06;;;1.78;100.00
18858;BME280;9558;50.178;8.370;2023-03-08T05:35:56;96427.31;;;1.78;100.00
18858;BME280;9558;50.178;8.370;2023-03-08T05:38:23;96412.00;;;1.78;100.00
18858;BME280;9558;50.178;8.370;2023-03-08T05:40:50;96406.28;;;1.76;100.00
18858;BME280;9558;50.178;8.370;2023-03-08T05:43:17;96407.06;;;1.77;100.00
18858;BME280;9558;50.178;8.370;2023-03-08T05:45:53;96408.03;;;1.76;100.00
18858;BME280;9558;50.178;8.370;2023-03-08T05:48:19;96401.34;;;1.75;100.00
18858;BME280;9558;50.178;8.370;2023-03-08T05:50:47;96397.81;;;1.76;100.00
18858;BME280;9558;50.178;8.370;2023-03-08T05:53:14;96395.28;;;1.76;100.00
18858;BME280;9558;50.178;8.370;2023-03-08T05:55:40;96394.16;;;1.78;100.00
18858;BME280;9558;50.178;8.370;2023-03-08T05:58:06;96393.53;;;1.76;100.00
18858;BME280;9558;50.178;8.370;2023-03-08T06:00:33;96395.09;;;1.77;100.00
18858;BME280;9558;50.178;8.370;2023-03-08T06:03:00;96398.31;;;1.79;100.00
18858;BME280;9558;50.178;8.370;2023-03-08T06:05:28;96404.84;;;1.82;100.00
18858;BME280;9558;50.178;8.370;2023-03-08T06:07:56;96414.22;;;1.81;100.00
18858;BME280;9558;50.178;8.370;2023-03-08T06:10:23;96416.00;;;1.81;100.00
18858;BME280;9558;50.178;8.370;2023-03-08T06:12:49;96388.09;;;1.79;100.00
18858;BME280;9558;50.178;8.370;2023-03-08T06:15:16;96379.81;;;1.77;100.00
18858;BME280;9558;50.178;8.370;2023-03-08T06:17:42;96397.38;;;1.72;100.00
18858;BME280;9558;50.178;8.370;2023-03-08T06:20:10;96390.66;;;1.71;100.00
18858;BME280;9558;50.178;8.370;2023-03-08T06:22:36;96389.41;;;1.67;100.00
18858;BME280;9558;50.178;8.370;2023-03-08T06:25:05;96393.72;;;1.66;100.00
18858;BME280;9558;50.178;8.370;2023-03-08T06:27:32;96391.34;;;1.65;100.00
18858;BME280;9558;50.178;8.370;2023-03-08T06:29:58;96392.94;;;1.66;100.00
18858;BME280;9558;50.178;8.370;2023-03-08T06:32:25;96373.66;;;1.63;100.00
18858;BME280;9558;50.178;8.370;2023-03-08T06:34:51;96386.06;;;1.58;100.00
18858;BME280;9558;50.178;8.370;2023-03-08T06:37:18;96393.56;;;1.60;100.00
18858;BME280;9558;50.178;8.370;2023-03-08T06:39:45;96393.56;;;1.60;100.00
18858;BME280;9558;50.178;8.370;2023-03-08T06:42:12;96379.38;;;1.57;100.00
18858;BME280;9558;50.178;8.370;2023-03-08T06:44:39;96379.53;;;1.55;100.00
18858;BME280;9558;50.178;8.370;2023-03-08T06:47:05;96366.47;;;1.59;100.00
18858;BME280;9558;50.178;8.370;2023-03-08T06:49:33;96366.78;;;1.55;100.00
18858;BME280;9558;50.178;8.370;2023-03-08T06:51:59;96355.34;;;1.51;100.00
18858;BME280;9558;50.178;8.370;2023-03-08T06:54:26;96351.84;;;1.52;100.00
18858;BME280;9558;50.178;8.370;2023-03-08T06:56:52;96347.69;;;1.51;100.00
18858;BME280;9558;50.178;8.370;2023-03-08T06:59:20;96353.28;;;1.47;100.00
18858;BME280;9558;50.178;8.370;2023-03-08T07:01:46;96347.22;;;1.48;100.00
18858;BME280;9558;50.178;8.370;2023-03-08T07:04:13;96347.06;;;1.49;100.00
18858;BME280;9558;50.178;8.370;2023-03-08T07:06:42;96344.19;;;1.44;100.00
18858;BME280;9558;50.178;8.370;2023-03-08T07:09:09;96340.69;;;1.45;100.00
18858;BME280;9558;50.178;8.370;2023-03-08T07:11:35;96341.34;;;1.47;100.00
18858;BME280;9558;50.178;8.370;2023-03-08T07:14:03;96332.44;;;1.43;100.00
18858;BME280;9558;50.178;8.370;2023-03-08T07:16:31;96323.34;;;1.41;100.00
18858;BME280;9558;50.178;8.370;2023-03-08T07:18:57;96313.00;;;1.42;100.00
18858;BME280;9558;50.178;8.370;2023-03-08T07:21:24;96322.06;;;1.45;100.00
18858;BME280;9558;50.178;8.370;2023-03-08T07:23:50;96302.19;;;1.40;100.00
18858;BME280;9558;50.178;8.370;2023-03-08T07:26:18;96294.38;;;1.42;100.00
18858;BME280;9558;50.178;8.370;2023-03-08T07:28:47;96295.31;;;1.41;100.00
18858;BME280;9558;50.178;8.370;2023-03-08T07:31:16;96290.06;;;1.42;100.00
18858;BME280;9558;50.178;8.370;2023-03-08T07:33:43;96275.88;;;1.40;100.00
18858;BME280;9558;50.178;8.370;2023-03-08T07:36:10;96270.94;;;1.38;100.00
18858;BME280;9558;50.178;8.370;2023-03-08T07:38:37;96261.72;;;1.37;100.00
18858;BME280;9558;50.178;8.370;2023-03-08T07:41:03;96264.59;;;1.34;100.00
18858;BME280;9558;50.178;8.370;2023-03-08T07:43:30;96253.13;;;1.38;100.00
18858;BME280;9558;50.178;8.370;2023-03-08T07:45:58;96243.91;;;1.29;100.00
18858;BME280;9558;50.178;8.370;2023-03-08T07:48:25;96241.66;;;1.34;100.00
18858;BME280;9558;50.178;8.370;2023-03-08T07:50:52;96240.41;;;1.30;100.00
18858;BME280;9558;50.178;8.370;2023-03-08T07:53:19;96233.56;;;1.30;100.00
18858;BME280;9558;50.178;8.370;2023-03-08T07:55:46;96229.59;;;1.28;100.00
18858;BME280;9558;50.178;8.370;2023-03-08T07:58:12;96228.94;;;1.26;100.00
18858;BME280;9558;50.178;8.370;2023-03-08T08:00:39;96228.31;;;1.24;100.00
18858;BME280;9558;50.178;8.370;2023-03-08T08:03:05;96228.31;;;1.24;100.00
18858;BME280;9558;50.178;8.370;2023-03-08T08:05:34;96225.44;;;1.27;100.00
18858;BME280;9558;50.178;8.370;2023-03-08T08:08:02;96213.97;;;1.23;100.00
18858;BME280;9558;50.178;8.370;2023-03-08T08:10:28;96215.59;;;1.24;100.00
18858;BME280;9558;50.178;8.370;2023-03-08T08:12:55;96222.28;;;1.25;100.00
18858;BME280;9558;50.178;8.370;2023-03-08T08:15:22;96198.41;;;1.17;100.00
18858;BME280;9558;50.178;8.370;2023-03-08T08:17:49;96188.41;;;1.16;100.00
18858;BME280;9558;50.178;8.370;2023-03-08T08:20:16;96176.44;;;1.16;100.00
18858;BME280;9558;50.178;8.370;2023-03-08T08:22:43;96181.84;;;1.22;100.00
18858;BME280;9558;50.178;8.370;2023-03-08T08:25:11;96186.94;;;1.22;100.00
18858;BME280;9558;50.178;8.370;2023-03-08T08:27:37;96188.34;;;1.24;100.00
18858;BME280;9558;50.178;8.370;2023-03-08T08:30:04;96194.09;;;1.26;100.00
18858;BME280;9558;50.178;8.370;2023-03-08T08:32:31;96185.63;;;1.26;100.00
18858;BME280;9558;50.178;8.370;2023-03-08T08:34:58;96183.06;;;1.26;100.00
18858;BME280;9558;50.178;8.370;2023-03-08T08:37:24;96178.31;;;1.23;100.00
18858;BME280;9558;50.178;8.370;2023-03-08T08:39:51;96167.47;;;1.29;100.00
18858;BME280;9558;50.178;8.370;2023-03-08T08:42:19;96163.16;;;1.29;100.00
18858;BME280;9558;50.178;8.370;2023-03-08T08:44:46;96144.38;;;1.30;100.00
18858;BME280;9558;50.178;8.370;2023-03-08T08:47:12;96155.34;;;1.31;100.00
18858;BME280;9558;50.178;8.370;2023-03-08T08:49:39;96139.72;;;1.34;100.00
18858;BME280;9558;50.178;8.370;2023-03-08T08:52:06;96131.91;;;1.35;100.00
18858;BME280;9558;50.178;8.370;2023-03-08T08:54:32;96121.91;;;1.34;100.00
18858;BME280;9558;50.178;8.370;2023-03-08T08:56:59;96119.00;;;1.37;100.00
18858;BME280;9558;50.178;8.370;2023-03-08T08:59:26;96110.88;;;1.42;100.00
18858;BME280;9558;50.178;8.370;2023-03-08T09:01:53;96098.59;;;1.45;100.00
18858;BME280;9558;50.178;8.370;2023-03-08T09:04:19;96100.78;;;1.48;100.00
18858;BME280;9558;50.178;8.370;2023-03-08T09:06:46;96092.19;;;1.49;100.00
18858;BME280;9558;50.178;8.370;2023-03-08T09:09:13;96092.19;;;1.49;100.00
18858;BME280;9558;50.178;8.370;2023-03-08T09:11:40;96091.50;;;1.55;100.00
18858;BME280;9558;50.178;8.370;2023-03-08T09:14:07;96096.59;;;1.55;100.00
18858;BME280;9558;50.178;8.370;2023-03-08T09:16:34;96105.06;;;1.56;100.00
18858;BME280;9558;50.178;8.370;2023-03-08T09:19:02;96104.06;;;1.57;100.00
18858;BME280;9558;50.178;8.370;2023-03-08T09:21:30;96105.06;;;1.56;100.00
18858;BME280;9558;50.178;8.370;2023-03-08T09:23:59;96093.72;;;1.59;100.00
18858;BME280;9558;50.178;8.370;2023-03-08T09:26:28;96088.94;;;1.55;100.00
18858;BME280;9558;50.178;8.370;2023-03-08T09:28:54;96096.94;;;1.52;100.00
18858;BME280;9558;50.178;8.370;2023-03-08T09:31:21;96082.78;;;1.50;100.00
18858;BME280;9558;50.178;8.370;2023-03-08T09:33:50;96103.97;;;1.50;100.00
18858;BME280;9558;50.178;8.370;2023-03-08T09:36:17;96096.69;;;1.47;100.00
18858;BME280;9558;50.178;8.370;2023-03-08T09:38:46;96095.41;;;1.43;100.00
18858;BME280;9558;50.178;8.370;2023-03-08T09:41:27;96082.84;;;1.42;100.00
18858;BME280;9558;50.178;8.370;2023-03-08T09:44:04;96077.94;;;1.40;100.00
18858;BME280;9558;50.178;8.370;2023-03-08T09:46:39;96087.13;;;1.41;100.00
18858;BME280;9558;50.178;8.370;2023-03-08T09:49:12;96091.63;;;1.39;100.00
18858;BME280;9558;50.178;8.370;2023-03-08T09:51:44;96086.19;;;1.42;100.00
18858;BME280;9558;50.178;8.370;2023-03-08T09:54:16;96086.19;;;1.42;100.00
18858;BME280;9558;50.178;8.370;2023-03-08T09:56:45;96085.84;;;1.45;100.00
18858;BME280;9558;50.178;8.370;2023-03-08T09:59:16;96076.91;;;1.49;100.00
18858;BME280;9558;50.178;8.370;2023-03-08T10:01:51;96071.03;;;1.49;100.00
18858;BME280;9558;50.178;8.370;2023-03-08T10:04:34;96062.84;;;1.53;100.00
18858;BME280;9558;50.178;8.370;2023-03-08T10:07:20;96054.34;;;1.61;100.00
18858;BME280;9558;50.178;8.370;2023-03-08T10:09:57;96041.78;;;1.60;100.00
18858;BME280;9558;50.178;8.370;2023-03-08T10:12:33;96043.72;;;1.58;100.00
18858;BME280;9558;50.178;8.370;2023-03-08T10:15:10;96044.97;;;1.62;100.00
18858;BME280;9558;50.178;8.370;2023-03-08T10:17:45;96035.88;;;1.59;100.00
18858;BME280;9558;50.178;8.370;2023-03-08T10:20:18;96031.56;;;1.60;100.00
18858;BME280;9558;50.178;8.370;2023-03-08T10:22:52;96036.31;;;1.63;100.00
18858;BME280;9558;50.178;8.370;2023-03-08T10:25:23;96028.63;;;1.71;100.00
18858;BME280;9558;50.178;8.370;2023-03-08T10:27:52;96028.19;;;1.67;100.00
18858;BME280;9558;50.178;8.370;2023-03-08T10:30:22;96035.47;;;1.70;100.00
18858;BME280;9558;50.178;8.370;2023-03-08T10:32:53;96035.03;;;1.67;100.00
18858;BME280;9558;50.178;8.370;2023-03-08T10:35:32;96026.06;;;1.71;100.00
18858;BME280;9558;50.178;8.370;2023-03-08T10:37:59;96020.72;;;1.66;100.00
18858;BME280;9558;50.178;8.370;2023-03-08T10:40:26;96004.72;;;1.72;100.00
18858;BME280;9558;50.178;8.370;2023-03-08T10:42:55;96000.41;;;1.72;100.00
18858;BME280;9558;50.178;8.370;2023-03-08T10:45:26;96002.59;;;1.76;100.00
18858;BME280;9558;50.178;8.370;2023-03-08T10:47:54;95990.66;;;1.76;100.00
18858;BME280;9558;50.178;8.370;2023-03-08T10:50:23;95983.91;;;1.83;100.00
18858;BME280;9558;50.178;8.370;2023-03-08T10:52:51;95980.72;;;1.81;100.00
18858;BME280;9558;50.178;8.370;2023-03-08T10:55:18;95970.34;;;1.83;100.00
18858;BME280;9558;50.178;8.370;2023-03-08T10:57:49;95969.03;;;1.87;100.00
18858;BME280;9558;50.178;8.370;2023-03-08T11:00:27;95982.59;;;1.87;100.00
18858;BME280;9558;50.178;8.370;2023-03-08T11:03:02;95965.00;;;1.93;100.00
18858;BME280;9558;50.178;8.370;2023-03-08T11:05:29;95968.16;;;1.95;100.00
18858;BME280;9558;50.178;8.370;2023-03-08T11:07:59;95956.03;;;1.97;100.00
18858;BME280;9558;50.178;8.370;2023-03-08T11:10:26;95973.63;;;1.92;100.00
18858;BME280;9558;50.178;8.370;2023-03-08T11:13:00;95983.81;;;1.92;100.00
18858;BME280;9558;50.178;8.370;2023-03-08T11:15:28;95978.19;;;1.96;100.00
18858;BME280;9558;50.178;8.370;2023-03-08T11:18:00;95981.88;;;1.94;100.00
18858;BME280;9558;50.178;8.370;2023-03-08T11:20:33;95985.38;;;1.93;100.00
18858;BME280;9558;50.178;8.370;2023-03-08T11:23:13;95974.22;;;1.94;100.00
18858;BME280;9558;50.178;8.370;2023-03-08T11:25:44;95966.75;;;1.92;100.00
18858;BME280;9558;50.178;8.370;2023-03-08T11:28:26;95977.13;;;1.90;100.00
18858;BME280;9558;50.178;8.370;2023-03-08T11:31:10;95966.13;;;1.90;100.00
18858;BME280;9558;50.178;8.370;2023-03-08T11:36:34;95968.53;;;1.92;100.00
18858;BME280;9558;50.178;8.370;2023-03-08T11:39:12;95966.22;;;1.97;100.00
18858;BME280;9558;50.178;8.370;2023-03-08T11:41:46;95952.50;;;1.98;100.00
18858;BME280;9558;50.178;8.370;2023-03-08T11:44:31;95950.56;;;2.00;100.00
18858;BME280;9558;50.178;8.370;2023-03-08T11:47:21;95942.56;;;2.03;100.00
18858;BME280;9558;50.178;8.370;2023-03-08T11:50:00;95938.44;;;2.02;100.00
18858;BME280;9558;50.178;8.370;2023-03-08T11:52:36;95937.63;;;2.01;100.00
18858;BME280;9558;50.178;8.370;2023-03-08T11:55:19;95938.69;;;2.07;100.00
18858;BME280;9558;50.178;8.370;2023-03-08T11:57:52;95937.38;;;2.11;100.00
18858;BME280;9558;50.178;8.370;2023-03-08T12:00:27;95942.13;;;2.14;100.00
18858;BME280;9558;50.178;8.370;2023-03-08T12:03:00;95935.44;;;2.13;100.00
18858;BME280;9558;50.178;8.370;2023-03-08T12:05:33;95925.25;;;2.13;100.00
18858;BME280;9558;50.178;8.370;2023-03-08T12:08:02;95932.72;;;2.15;100.00
18858;BME280;9558;50.178;8.370;2023-03-08T12:10:36;95930.34;;;2.13;100.00
18858;BME280;9558;50.178;8.370;2023-03-08T12:13:14;95929.19;;;2.16;100.00
18858;BME280;9558;50.178;8.370;2023-03-08T12:15:46;95930.00;;;2.16;100.00
18858;BME280;9558;50.178;8.370;2023-03-08T12:18:17;95916.41;;;2.16;100.00
18858;BME280;9558;50.178;8.370;2023-03-08T12:20:46;95918.00;;;2.17;100.00
18858;BME280;9558;50.178;8.370;2023-03-08T12:23:17;95893.91;;;2.19;100.00
18858;BME280;9558;50.178;8.370;2023-03-08T12:25:49;95903.75;;;2.22;100.00
18858;BME280;9558;50.178;8.370;2023-03-08T12:28:20;95910.28;;;2.25;100.00
18858;BME280;9558;50.178;8.370;2023-03-08T12:31:00;95906.56;;;2.28;100.00
18858;BME280;9558;50.178;8.370;2023-03-08T12:33:30;95902.69;;;2.32;100.00
18858;BME280;9558;50.178;8.370;2023-03-08T12:35:59;95904.25;;;2.33;100.00
18858;BME280;9558;50.178;8.370;2023-03-08T12:38:32;95903.31;;;2.34;100.00
18858;BME280;9558;50.178;8.370;2023-03-08T12:41:01;95915.09;;;2.35;100.00
18858;BME280;9558;50.178;8.370;2023-03-08T12:43:29;95910.97;;;2.34;100.00
18858;BME280;9558;50.178;8.370;2023-03-08T12:46:03;95888.00;;;2.34;100.00
18858;BME280;9558;50.178;8.370;2023-03-08T12:48:31;95888.63;;;2.36;100.00
18858;BME280;9558;50.178;8.370;2023-03-08T12:51:07;95894.06;;;2.33;100.00
18858;BME280;9558;50.178;8.370;2023-03-08T12:53:55;95880.50;;;2.32;100.00
18858;BME280;9558;50.178;8.370;2023-03-08T12:56:27;95878.13;;;2.31;100.00
18858;BME280;9558;50.178;8.370;2023-03-08T12:58:57;95893.88;;;2.34;100.00
18858;BME280;9558;50.178;8.370;2023-03-08T13:01:33;95894.13;;;2.39;100.00
18858;BME280;9558;50.178;8.370;2023-03-08T13:04:01;95885.50;;;2.40;100.00
18858;BME280;9558;50.178;8.370;2023-03-08T13:09:36;95880.47;;;2.47;100.00
18858;BME280;9558;50.178;8.370;2023-03-08T13:12:24;95890.25;;;2.44;100.00
18858;BME280;9558;50.178;8.370;2023-03-08T13:15:07;95876.16;;;2.48;100.00
18858;BME280;9558;50.178;8.370;2023-03-08T13:17:37;95888.75;;;2.49;100.00
18858;BME280;9558;50.178;8.370;2023-03-08T13:20:13;95886.78;;;2.51;100.00
18858;BME280;9558;50.178;8.370;2023-03-08T13:22:49;95892.53;;;2.53;100.00
18858;BME280;9558;50.178;8.370;2023-03-08T13:25:36;95879.38;;;2.56;100.00